createdAt,value
2022-09-04T00:01:16.180Z,98193.00
2022-09-04T00:04:00.090Z,98196.00
2022-09-04T00:06:42.674Z,98192.00
2022-09-04T00:09:24.273Z,98212.00
2022-09-04T00:12:09.267Z,98187.00
2022-09-04T00:14:52.235Z,98212.00
2022-09-04T00:17:36.067Z,98202.00
2022-09-04T00:20:24.564Z,98202.00
2022-09-04T00:23:07.500Z,98217.00
2022-09-04T00:25:52.191Z,98207.00
2022-09-04T00:28:36.516Z,98229.00
2022-09-04T00:31:26.615Z,98217.00
2022-09-04T00:34:15.086Z,98223.00
2022-09-04T00:36:55.145Z,98207.00
2022-09-04T00:39:39.501Z,98214.00
2022-09-04T00:43:08.285Z,98202.00
2022-09-04T00:46:06.818Z,98212.00
2022-09-04T00:49:24.255Z,98220.00
2022-09-04T00:52:15.312Z,98219.00
2022-09-04T00:55:11.372Z,98225.00
2022-09-04T00:58:18.959Z,98220.00
2022-09-04T01:00:58.820Z,98230.00
2022-09-04T01:03:51.327Z,98239.00
2022-09-04T01:06:46.004Z,98229.00
2022-09-04T01:09:44.354Z,98235.00
2022-09-04T01:12:38.021Z,98237.00
2022-09-04T01:15:20.977Z,98232.00
2022-09-04T01:18:05.225Z,98232.00
2022-09-04T01:20:56.437Z,98245.00
2022-09-04T01:24:07.524Z,98236.00
2022-09-04T01:26:54.690Z,98238.00
2022-09-04T01:29:50.563Z,98241.00
2022-09-04T01:32:37.176Z,98248.00
2022-09-04T01:35:24.735Z,98231.00
2022-09-04T01:38:17.416Z,98250.00
2022-09-04T01:41:00.283Z,98259.00
2022-09-04T01:43:36.069Z,98254.00
2022-09-04T01:46:39.110Z,98254.00
2022-09-04T01:49:36.666Z,98246.00
2022-09-04T01:52:29.294Z,98248.00
2022-09-04T01:55:22.362Z,98263.00
2022-09-04T01:58:14.430Z,98265.00
2022-09-04T02:01:21.288Z,98256.00
2022-09-04T02:04:13.649Z,98262.00
2022-09-04T02:07:01.038Z,98263.00
2022-09-04T02:09:56.718Z,98265.00
2022-09-04T02:12:38.658Z,98265.00
2022-09-04T02:15:23.813Z,98268.00
2022-09-04T02:18:12.554Z,98260.00
2022-09-04T02:21:04.438Z,98273.00
2022-09-04T02:23:46.895Z,98280.00
2022-09-04T02:26:29.768Z,98288.00
2022-09-04T02:29:15.352Z,98279.00
2022-09-04T02:31:59.995Z,98263.00
2022-09-04T02:34:45.909Z,98284.00
2022-09-04T02:37:28.410Z,98263.00
2022-09-04T02:40:12.033Z,98289.00
2022-09-04T02:43:07.667Z,98258.00
2022-09-04T02:45:50.253Z,98278.00
2022-09-04T02:48:43.109Z,98282.00
2022-09-04T02:51:45.675Z,98278.00
2022-09-04T02:54:38.528Z,98279.00
2022-09-04T02:57:30.124Z,98279.00
2022-09-04T03:00:11.700Z,98272.00
2022-09-04T03:02:56.184Z,98286.00
2022-09-04T03:05:35.413Z,98256.00
2022-09-04T03:08:20.796Z,98272.00
2022-09-04T03:11:01.656Z,98290.00
2022-09-04T03:13:51.153Z,98288.00
2022-09-04T03:16:33.660Z,98273.00
2022-09-04T03:19:19.154Z,98280.00
2022-09-04T03:22:03.556Z,98278.00
2022-09-04T03:25:06.270Z,98271.00
2022-09-04T03:27:43.158Z,98290.00
2022-09-04T03:30:21.797Z,98284.00
2022-09-04T03:33:07.833Z,98292.00
2022-09-04T03:35:53.753Z,98284.00
2022-09-04T03:38:42.542Z,98282.00
2022-09-04T03:41:35.520Z,98290.00
2022-09-04T03:44:24.064Z,98264.00
2022-09-04T03:47:08.085Z,98285.00
2022-09-04T03:49:59.668Z,98282.00
2022-09-04T03:52:47.112Z,98286.00
2022-09-04T03:55:41.462Z,98295.00
2022-09-04T03:58:29.952Z,98269.00
2022-09-04T04:01:24.704Z,98294.00
2022-09-04T04:04:38.186Z,98310.00
2022-09-04T04:07:28.789Z,98289.00
2022-09-04T04:10:13.645Z,98295.00
2022-09-04T04:13:23.384Z,98311.00
2022-09-04T04:16:26.224Z,98313.00
2022-09-04T04:19:27.105Z,98322.00
2022-09-04T04:22:25.586Z,98317.00
2022-09-04T04:25:28.081Z,98311.00
2022-09-04T04:28:20.471Z,98325.00
2022-09-04T04:31:06.664Z,98326.00
2022-09-04T04:33:52.567Z,98301.00
2022-09-04T04:36:37.374Z,98299.00
2022-09-04T04:39:30.541Z,98333.00
2022-09-04T04:42:21.109Z,98336.00
2022-09-04T04:45:28.279Z,98343.00
2022-09-04T04:49:00.191Z,98349.00
2022-09-04T04:51:58.577Z,98343.00
2022-09-04T04:54:52.820Z,98344.00
2022-09-04T04:57:40.092Z,98354.00
2022-09-04T05:00:23.985Z,98352.00
2022-09-04T05:03:09.412Z,98357.00
2022-09-04T05:05:58.450Z,98365.00
2022-09-04T05:08:44.084Z,98370.00
2022-09-04T05:11:34.780Z,98360.00
2022-09-04T05:14:19.943Z,98381.00
2022-09-04T05:17:05.805Z,98370.00
2022-09-04T05:19:50.941Z,98375.00
2022-09-04T05:22:40.165Z,98375.00
2022-09-04T05:25:26.413Z,98377.00
2022-09-04T05:28:14.854Z,98382.00
2022-09-04T05:30:57.824Z,98383.00
2022-09-04T05:33:40.051Z,98404.00
2022-09-04T05:36:32.187Z,98406.00
2022-09-04T05:39:17.068Z,98413.00
2022-09-04T05:42:07.726Z,98419.00
2022-09-04T05:44:54.167Z,98421.00
2022-09-04T05:47:42.001Z,98428.00
2022-09-04T05:50:38.745Z,98427.00
2022-09-04T05:53:41.207Z,98431.00
2022-09-04T05:57:07.295Z,98429.00
2022-09-04T06:00:11.662Z,98429.00
2022-09-04T06:03:32.824Z,98449.00
2022-09-04T06:06:15.371Z,98442.00
2022-09-04T06:09:20.029Z,98428.00
2022-09-04T06:12:22.828Z,98444.00
2022-09-04T06:15:17.571Z,98450.00
2022-09-04T06:18:11.619Z,98453.00
2022-09-04T06:21:42.471Z,98456.00
2022-09-04T06:24:45.668Z,98451.00
2022-09-04T06:27:53.724Z,98458.00
2022-09-04T06:30:39.103Z,98477.00
2022-09-04T06:33:44.952Z,98475.00
2022-09-04T06:36:47.726Z,98483.00
2022-09-04T06:39:57.463Z,98475.00
2022-09-04T06:42:50.170Z,98473.00
2022-09-04T06:45:38.063Z,98486.00
2022-09-04T06:48:25.495Z,98483.00
2022-09-04T06:51:11.812Z,98493.00
2022-09-04T06:54:07.640Z,98488.00
2022-09-04T06:57:07.146Z,98489.00
2022-09-04T07:00:06.876Z,98477.00
2022-09-04T07:03:10.695Z,98510.00
2022-09-04T07:05:56.262Z,98484.00
2022-09-04T07:08:49.092Z,98522.00
2022-09-04T07:11:45.048Z,98502.00
2022-09-04T07:14:47.630Z,98514.00
2022-09-04T07:17:32.136Z,98513.00
2022-09-04T07:20:19.548Z,98506.00
2022-09-04T07:23:17.640Z,98523.00
2022-09-04T07:26:05.533Z,98518.00
2022-09-04T07:29:01.878Z,98516.00
2022-09-04T07:31:45.652Z,98515.00
2022-09-04T07:34:30.955Z,98519.00
2022-09-04T07:37:17.802Z,98525.00
2022-09-04T07:40:03.687Z,98513.00
2022-09-04T07:42:51.088Z,98545.00
2022-09-04T07:45:37.229Z,98543.00
2022-09-04T07:48:22.518Z,98541.00
2022-09-04T07:51:10.320Z,98542.00
2022-09-04T07:54:22.982Z,98544.00
2022-09-04T07:57:51.918Z,98543.00
2022-09-04T08:00:29.126Z,98550.00
2022-09-04T08:03:27.714Z,98553.00
2022-09-04T08:06:19.685Z,98547.00
2022-09-04T08:09:14.499Z,98562.00
2022-09-04T08:12:29.166Z,98561.00
2022-09-04T08:15:22.115Z,98566.00
2022-09-04T08:18:21.763Z,98562.00
2022-09-04T08:21:14.042Z,98575.00
2022-09-04T08:24:50.128Z,98580.00
2022-09-04T08:27:44.384Z,98578.00
2022-09-04T08:30:23.405Z,98583.00
2022-09-04T08:34:03.586Z,98580.00
2022-09-04T08:36:50.281Z,98565.00
2022-09-04T08:39:49.037Z,98580.00
2022-09-04T08:43:06.857Z,98586.00
2022-09-04T08:46:29.009Z,98586.00
2022-09-04T08:50:00.975Z,98588.00
2022-09-04T08:53:24.159Z,98587.00
2022-09-04T08:56:32.423Z,98590.00
2022-09-04T08:59:56.795Z,98590.00
2022-09-04T09:03:17.585Z,98588.00
2022-09-04T09:06:54.329Z,98591.00
2022-09-04T09:10:15.659Z,98583.00
2022-09-04T09:13:33.280Z,98579.00
2022-09-04T09:16:26.055Z,98575.00
2022-09-04T09:19:23.944Z,98585.00
2022-09-04T09:22:12.500Z,98576.00
2022-09-04T09:25:19.870Z,98585.00
2022-09-04T09:28:56.390Z,98576.00
2022-09-04T09:32:11.368Z,98588.00
2022-09-04T09:35:59.284Z,98589.00
2022-09-04T09:39:46.226Z,98589.00
2022-09-04T09:43:11.684Z,98592.00
2022-09-04T09:46:26.205Z,98582.00
2022-09-04T09:49:38.884Z,98593.00
2022-09-04T09:53:16.047Z,98594.00
2022-09-04T09:56:41.211Z,98595.00
2022-09-04T10:19:30.415Z,98573.00
2022-09-04T10:22:52.206Z,98584.00
2022-09-04T10:26:18.597Z,98584.00
2022-09-04T10:29:34.557Z,98572.00
2022-09-04T10:33:11.538Z,98574.00
2022-09-04T10:36:04.281Z,98582.00
2022-09-04T10:38:58.675Z,98586.00
2022-09-04T10:41:53.348Z,98581.00
2022-09-04T10:44:47.200Z,98581.00
2022-09-04T10:48:07.475Z,98577.00
2022-09-04T10:51:11.007Z,98579.00
2022-09-04T10:54:12.041Z,98575.00
2022-09-04T10:57:06.846Z,98562.00
2022-09-04T11:00:02.630Z,98568.00
2022-09-04T11:03:28.758Z,98565.00
2022-09-04T11:06:47.639Z,98568.00
2022-09-04T11:09:58.092Z,98571.00
2022-09-04T11:13:48.122Z,98567.00
2022-09-04T11:16:50.576Z,98553.00
2022-09-04T11:20:02.687Z,98552.00
2022-09-04T11:23:10.463Z,98569.00
2022-09-04T11:26:26.512Z,98572.00
2022-09-04T11:29:22.822Z,98558.00
2022-09-04T11:32:28.229Z,98552.00
2022-09-04T11:35:43.408Z,98553.00
2022-09-04T11:38:59.741Z,98555.00
2022-09-04T11:42:12.578Z,98552.00
2022-09-04T11:45:17.806Z,98558.00
2022-09-04T11:48:37.943Z,98561.00
2022-09-04T11:51:50.908Z,98556.00
2022-09-04T11:55:08.272Z,98561.00
2022-09-04T11:58:15.311Z,98566.00
2022-09-04T12:01:04.169Z,98568.00
2022-09-04T12:04:24.620Z,98573.00
2022-09-04T12:07:25.106Z,98575.00
2022-09-04T12:10:24.320Z,98571.00
2022-09-04T12:13:40.317Z,98577.00
2022-09-04T12:16:56.021Z,98571.00
2022-09-04T12:20:12.620Z,98565.00
2022-09-04T12:23:30.133Z,98565.00
2022-09-04T12:26:58.143Z,98568.00
2022-09-04T12:30:01.164Z,98571.00
2022-09-04T12:33:08.943Z,98562.00
2022-09-04T12:36:23.232Z,98566.00
2022-09-04T12:40:01.658Z,98565.00
2022-09-04T12:42:50.064Z,98573.00
2022-09-04T12:45:41.151Z,98578.00
2022-09-04T12:48:36.263Z,98560.00
2022-09-04T12:51:15.080Z,98573.00
2022-09-04T12:54:20.609Z,98567.00
2022-09-04T12:57:17.890Z,98572.00
2022-09-04T13:00:12.640Z,98566.00
2022-09-04T13:03:18.425Z,98559.00
2022-09-04T13:06:11.324Z,98566.00
2022-09-04T13:09:15.287Z,98570.00
2022-09-04T13:12:06.108Z,98564.00
2022-09-04T13:15:13.723Z,98572.00
2022-09-04T13:18:04.496Z,98568.00
2022-09-04T13:20:49.566Z,98569.00
2022-09-04T13:24:00.143Z,98570.00
2022-09-04T13:26:54.798Z,98571.00
2022-09-04T13:29:44.178Z,98574.00
2022-09-04T13:32:54.581Z,98569.00
2022-09-04T13:35:57.612Z,98568.00
2022-09-04T13:39:45.301Z,98576.00
2022-09-04T13:43:05.811Z,98561.00
2022-09-04T13:45:49.182Z,98568.00
2022-09-04T13:48:44.875Z,98566.00
2022-09-04T13:51:38.489Z,98543.00
2022-09-04T13:57:33.735Z,98583.00
2022-09-04T14:00:24.361Z,98569.00
2022-09-04T14:03:04.584Z,98563.00
2022-09-04T14:06:11.391Z,98570.00
2022-09-04T14:09:04.903Z,98571.00
2022-09-04T14:12:16.055Z,98565.00
2022-09-04T14:15:32.391Z,98572.00
2022-09-04T14:18:45.285Z,98560.00
2022-09-04T14:25:17.812Z,98568.00
2022-09-04T14:31:26.923Z,98561.00
2022-09-04T14:37:24.685Z,98558.00
2022-09-04T14:40:08.431Z,98565.00
2022-09-04T14:42:52.149Z,98567.00
2022-09-04T14:45:54.418Z,98568.00
2022-09-04T14:48:51.479Z,98558.00
2022-09-04T14:51:39.135Z,98562.00
2022-09-04T14:54:27.184Z,98564.00
2022-09-04T15:00:18.418Z,98566.00
2022-09-04T15:03:09.748Z,98562.00
2022-09-04T15:06:03.703Z,98559.00
2022-09-04T15:08:45.035Z,98560.00
2022-09-04T15:11:50.441Z,98562.00
2022-09-04T15:14:35.327Z,98560.00
2022-09-04T15:17:17.496Z,98558.00
2022-09-04T15:20:01.265Z,98552.00
2022-09-04T15:22:43.320Z,98569.00
2022-09-04T15:25:59.265Z,98546.00
2022-09-04T15:32:14.300Z,98560.00
2022-09-04T15:35:09.366Z,98559.00
2022-09-04T15:37:59.276Z,98546.00
2022-09-04T15:41:05.909Z,98557.00
2022-09-04T15:43:50.195Z,98563.00
2022-09-04T15:46:56.954Z,98546.00
2022-09-04T15:49:50.663Z,98540.00
2022-09-04T15:52:40.806Z,98552.00
2022-09-04T15:55:28.520Z,98544.00
2022-09-04T15:58:12.140Z,98544.00
2022-09-04T16:01:16.889Z,98539.00
2022-09-04T16:04:02.179Z,98547.00
2022-09-04T16:06:48.157Z,98549.00
2022-09-04T16:09:29.537Z,98543.00
2022-09-04T16:12:11.623Z,98519.00
2022-09-04T16:14:50.394Z,98546.00
2022-09-04T16:17:30.599Z,98537.00
2022-09-04T16:20:33.456Z,98556.00
2022-09-04T16:23:15.932Z,98550.00
2022-09-04T16:25:56.896Z,98540.00
2022-09-04T16:28:41.672Z,98549.00
2022-09-04T16:31:26.132Z,98540.00
2022-09-04T16:34:08.937Z,98546.00
2022-09-04T16:36:48.400Z,98536.00
2022-09-04T16:39:32.390Z,98521.00
2022-09-04T16:42:21.902Z,98544.00
2022-09-04T16:45:04.332Z,98540.00
2022-09-04T16:47:47.554Z,98547.00
2022-09-04T16:50:32.455Z,98544.00
2022-09-04T16:53:14.558Z,98524.00
2022-09-04T16:55:59.310Z,98552.00
2022-09-04T16:58:46.253Z,98545.00
2022-09-04T17:01:29.276Z,98529.00
2022-09-04T17:04:43.334Z,98544.00
2022-09-04T17:07:37.355Z,98538.00
2022-09-04T17:10:36.494Z,98544.00
2022-09-04T17:13:18.336Z,98537.00
2022-09-04T17:16:04.126Z,98539.00
2022-09-04T17:18:43.863Z,98522.00
2022-09-04T17:25:32.703Z,98546.00
2022-09-04T17:29:09.384Z,98535.00
2022-09-04T17:29:12.275Z,98542.00
2022-09-04T17:31:07.484Z,98545.00
2022-09-04T17:40:13.743Z,98544.00
2022-09-04T17:40:40.956Z,98540.00
2022-09-04T17:40:53.466Z,98544.00
2022-09-04T17:43:28.871Z,98531.00
2022-09-04T17:46:26.770Z,98539.00
2022-09-04T17:49:10.381Z,98537.00
2022-09-04T17:51:52.354Z,98531.00
2022-09-04T17:54:42.228Z,98539.00
2022-09-04T17:57:53.124Z,98552.00
2022-09-04T18:00:35.205Z,98550.00
2022-09-04T18:03:26.926Z,98531.00
2022-09-04T18:06:12.455Z,98559.00
2022-09-04T18:08:58.089Z,98543.00
2022-09-04T18:11:41.316Z,98563.00
2022-09-04T18:14:33.013Z,98559.00
2022-09-04T18:17:13.569Z,98565.00
2022-09-04T18:19:52.450Z,98561.00
2022-09-04T18:22:34.041Z,98559.00
2022-09-04T18:25:16.577Z,98582.00
2022-09-04T18:28:11.677Z,98584.00
2022-09-04T18:37:09.342Z,98573.00
2022-09-04T18:37:26.901Z,98580.00
2022-09-04T18:37:44.541Z,98587.00
2022-09-04T18:40:39.194Z,98601.00
2022-09-04T18:50:33.996Z,98605.00
2022-09-04T18:50:48.581Z,98611.00
2022-09-04T18:52:59.487Z,98634.00
2022-09-04T18:55:47.014Z,98622.00
2022-09-04T18:59:00.359Z,98613.00
2022-09-04T19:02:01.106Z,98618.00
2022-09-04T19:07:47.575Z,98626.00
2022-09-04T19:10:27.091Z,98622.00
2022-09-04T19:13:09.151Z,98623.00
2022-09-04T19:16:02.257Z,98618.00
2022-09-04T19:18:52.921Z,98627.00
2022-09-04T19:21:36.583Z,98625.00
2022-09-04T19:24:28.684Z,98634.00
2022-09-04T19:27:28.504Z,98633.00
2022-09-04T19:30:18.923Z,98618.00
2022-09-04T19:33:10.268Z,98627.00
2022-09-04T19:35:54.653Z,98625.00
2022-09-04T19:45:57.805Z,98620.00
2022-09-04T19:46:00.059Z,98618.00
2022-09-04T19:46:17.044Z,98628.00
2022-09-04T19:48:19.399Z,98627.00
2022-09-04T19:53:30.441Z,98608.00
2022-09-04T19:54:06.358Z,98624.00
2022-09-04T19:57:31.210Z,98616.00
2022-09-04T19:59:51.208Z,98618.00
2022-09-04T20:02:37.187Z,98621.00
2022-09-04T20:05:23.950Z,98613.00
2022-09-04T20:08:21.298Z,98619.00
2022-09-04T20:11:02.274Z,98624.00
2022-09-04T20:13:49.916Z,98626.00
2022-09-04T20:16:31.679Z,98605.00
2022-09-04T20:19:20.241Z,98626.00
2022-09-04T20:22:08.379Z,98616.00
2022-09-04T20:27:47.784Z,98604.00
2022-09-04T20:30:31.621Z,98622.00
2022-09-04T20:33:12.386Z,98605.00
2022-09-04T20:35:54.380Z,98601.00
2022-09-04T20:38:46.217Z,98609.00
2022-09-04T20:41:28.299Z,98608.00
2022-09-04T20:44:17.027Z,98592.00
2022-09-04T20:52:45.033Z,98597.00
2022-09-04T20:52:52.603Z,98607.00
2022-09-04T20:53:09.607Z,98615.00
2022-09-04T20:56:26.094Z,98609.00
2022-09-04T21:03:11.196Z,98621.00
2022-09-04T21:03:19.733Z,98615.00
2022-09-04T21:06:06.717Z,98616.00
2022-09-04T21:08:50.695Z,98617.00
2022-09-04T21:11:40.803Z,98614.00
2022-09-04T21:14:26.926Z,98593.00
2022-09-04T21:17:35.088Z,98606.00
2022-09-04T21:20:48.578Z,98599.00
2022-09-04T21:24:24.956Z,98594.00
2022-09-04T21:27:31.326Z,98612.00
2022-09-04T21:30:10.604Z,98607.00
2022-09-04T21:33:28.050Z,98611.00
2022-09-04T21:36:26.272Z,98614.00
2022-09-04T21:39:39.970Z,98616.00
2022-09-04T21:42:46.383Z,98599.00
2022-09-04T21:45:37.120Z,98613.00
2022-09-04T21:48:46.356Z,98627.00
2022-09-04T21:51:44.769Z,98627.00
2022-09-04T21:58:21.279Z,98623.00
2022-09-04T22:02:42.418Z,98619.00
2022-09-04T22:02:45.896Z,98629.00
2022-09-04T22:04:51.215Z,98627.00
2022-09-04T22:11:08.830Z,98628.00
2022-09-04T22:13:28.827Z,98631.00
2022-09-04T22:14:03.187Z,98631.00
2022-09-04T22:17:22.640Z,98638.00
2022-09-04T22:20:21.145Z,98638.00
2022-09-04T22:23:42.751Z,98628.00
2022-09-04T22:27:00.291Z,98644.00
2022-09-04T22:30:07.105Z,98628.00
2022-09-04T22:33:45.578Z,98632.00
2022-09-04T22:37:05.262Z,98627.00
2022-09-04T22:40:16.803Z,98640.00
2022-09-04T22:43:07.067Z,98634.00
2022-09-04T22:46:54.797Z,98627.00
2022-09-04T22:50:10.460Z,98635.00
2022-09-04T22:53:05.904Z,98640.00
2022-09-04T22:56:22.623Z,98654.00
2022-09-04T22:59:27.918Z,98649.00
2022-09-04T23:03:04.171Z,98658.00
2022-09-04T23:08:03.015Z,98654.00
2022-09-04T23:13:50.840Z,98642.00
2022-09-04T23:13:57.903Z,98656.00
2022-09-04T23:16:04.083Z,98656.00
2022-09-04T23:22:56.632Z,98634.00
2022-09-04T23:26:42.226Z,98645.00
2022-09-04T23:26:45.515Z,98649.00
2022-09-04T23:28:52.909Z,98653.00
2022-09-04T23:32:06.813Z,98634.00
2022-09-04T23:35:14.547Z,98653.00
2022-09-04T23:38:17.073Z,98675.00
2022-09-04T23:40:55.319Z,98666.00
2022-09-04T23:44:09.292Z,98642.00
2022-09-04T23:47:10.339Z,98653.00
2022-09-04T23:50:12.724Z,98649.00
2022-09-04T23:53:04.527Z,98656.00
2022-09-04T23:56:02.988Z,98650.00
2022-09-04T23:59:21.296Z,98652.00
